sensor_id;sensor_type;location;lat;lon;timestamp;P1;durP1;ratioP1;P2;durP2;ratioP2
23884;SDS011;12123;53.088;7.392;2022-10-26T00:01:09;24.20;;;12.25;;
23884;SDS011;12123;53.088;7.392;2022-10-26T00:03:38;26.15;;;13.13;;
23884;SDS011;12123;53.088;7.392;2022-10-26T00:06:09;25.73;;;12.73;;
23884;SDS011;12123;53.088;7.392;2022-10-26T00:08:36;22.35;;;12.60;;
23884;SDS011;12123;53.088;7.392;2022-10-26T00:11:04;38.47;;;14.20;;
23884;SDS011;12123;53.088;7.392;2022-10-26T00:13:32;21.98;;;13.18;;
23884;SDS011;12123;53.088;7.392;2022-10-26T00:15:59;22.70;;;12.73;;
23884;SDS011;12123;53.088;7.392;2022-10-26T00:18:27;24.20;;;13.20;;
23884;SDS011;12123;53.088;7.392;2022-10-26T00:20:54;28.50;;;15.05;;
23884;SDS011;12123;53.088;7.392;2022-10-26T00:23:21;29.25;;;12.95;;
23884;SDS011;12123;53.088;7.392;2022-10-26T00:25:55;25.90;;;13.30;;
23884;SDS011;12123;53.088;7.392;2022-10-26T00:28:22;23.98;;;12.63;;
23884;SDS011;12123;53.088;7.392;2022-10-26T00:30:50;23.40;;;12.68;;
23884;SDS011;12123;53.088;7.392;2022-10-26T00:33:17;23.55;;;13.00;;
23884;SDS011;12123;53.088;7.392;2022-10-26T00:35:48;20.73;;;11.85;;
23884;SDS011;12123;53.088;7.392;2022-10-26T00:38:19;23.75;;;12.63;;
23884;SDS011;12123;53.088;7.392;2022-10-26T00:40:46;21.40;;;11.02;;
23884;SDS011;12123;53.088;7.392;2022-10-26T00:43:14;23.33;;;12.52;;
23884;SDS011;12123;53.088;7.392;2022-10-26T00:45:42;24.30;;;13.02;;
23884;SDS011;12123;53.088;7.392;2022-10-26T00:48:21;23.85;;;12.55;;
23884;SDS011;12123;53.088;7.392;2022-10-26T00:50:50;22.55;;;12.23;;
23884;SDS011;12123;53.088;7.392;2022-10-26T00:53:19;21.60;;;12.45;;
23884;SDS011;12123;53.088;7.392;2022-10-26T00:55:48;28.48;;;12.57;;
23884;SDS011;12123;53.088;7.392;2022-10-26T00:58:16;20.52;;;12.05;;
23884;SDS011;12123;53.088;7.392;2022-10-26T01:00:45;20.58;;;12.40;;
23884;SDS011;12123;53.088;7.392;2022-10-26T01:03:13;22.65;;;14.00;;
23884;SDS011;12123;53.088;7.392;2022-10-26T01:05:42;26.42;;;13.32;;
23884;SDS011;12123;53.088;7.392;2022-10-26T01:08:10;22.25;;;12.82;;
23884;SDS011;12123;53.088;7.392;2022-10-26T01:10:38;20.15;;;11.38;;
23884;SDS011;12123;53.088;7.392;2022-10-26T01:13:07;22.08;;;12.85;;
23884;SDS011;12123;53.088;7.392;2022-10-26T01:23:24;25.50;;;13.88;;
23884;SDS011;12123;53.088;7.392;2022-10-26T01:25:58;21.02;;;12.10;;
23884;SDS011;12123;53.088;7.392;2022-10-26T01:31:20;30.00;;;14.55;;
23884;SDS011;12123;53.088;7.392;2022-10-26T01:34:00;22.73;;;12.88;;
23884;SDS011;12123;53.088;7.392;2022-10-26T01:36:39;27.92;;;13.80;;
23884;SDS011;12123;53.088;7.392;2022-10-26T01:39:11;25.02;;;13.43;;
23884;SDS011;12123;53.088;7.392;2022-10-26T01:41:44;28.25;;;14.90;;
23884;SDS011;12123;53.088;7.392;2022-10-26T01:46:46;31.55;;;16.40;;
23884;SDS011;12123;53.088;7.392;2022-10-26T01:49:15;26.63;;;14.30;;
23884;SDS011;12123;53.088;7.392;2022-10-26T01:51:43;30.92;;;15.55;;
23884;SDS011;12123;53.088;7.392;2022-10-26T01:54:13;32.25;;;14.93;;
23884;SDS011;12123;53.088;7.392;2022-10-26T01:56:41;34.75;;;14.35;;
23884;SDS011;12123;53.088;7.392;2022-10-26T02:12:31;30.08;;;16.30;;
23884;SDS011;12123;53.088;7.392;2022-10-26T02:15:04;31.60;;;16.60;;
23884;SDS011;12123;53.088;7.392;2022-10-26T02:17:38;28.65;;;15.93;;
23884;SDS011;12123;53.088;7.392;2022-10-26T02:20:07;27.75;;;15.00;;
23884;SDS011;12123;53.088;7.392;2022-10-26T02:22:38;35.10;;;16.40;;
23884;SDS011;12123;53.088;7.392;2022-10-26T02:25:08;31.67;;;18.95;;
23884;SDS011;12123;53.088;7.392;2022-10-26T02:27:39;31.13;;;16.85;;
23884;SDS011;12123;53.088;7.392;2022-10-26T02:30:06;30.50;;;15.88;;
23884;SDS011;12123;53.088;7.392;2022-10-26T02:32:35;29.85;;;15.60;;
23884;SDS011;12123;53.088;7.392;2022-10-26T02:35:03;37.05;;;15.90;;
23884;SDS011;12123;53.088;7.392;2022-10-26T02:37:31;28.33;;;15.05;;
23884;SDS011;12123;53.088;7.392;2022-10-26T02:40:01;27.95;;;15.65;;
23884;SDS011;12123;53.088;7.392;2022-10-26T02:42:29;29.17;;;16.20;;
23884;SDS011;12123;53.088;7.392;2022-10-26T02:44:59;35.28;;;16.75;;
23884;SDS011;12123;53.088;7.392;2022-10-26T02:47:28;34.60;;;16.55;;
23884;SDS011;12123;53.088;7.392;2022-10-26T02:49:55;28.75;;;15.73;;
23884;SDS011;12123;53.088;7.392;2022-10-26T02:52:32;33.33;;;16.67;;
23884;SDS011;12123;53.088;7.392;2022-10-26T02:55:07;32.78;;;16.42;;
23884;SDS011;12123;53.088;7.392;2022-10-26T02:57:35;31.42;;;17.33;;
23884;SDS011;12123;53.088;7.392;2022-10-26T03:00:08;36.10;;;17.88;;
23884;SDS011;12123;53.088;7.392;2022-10-26T03:02:41;34.95;;;18.25;;
23884;SDS011;12123;53.088;7.392;2022-10-26T03:05:18;34.35;;;17.65;;
23884;SDS011;12123;53.088;7.392;2022-10-26T03:07:46;34.65;;;17.48;;
23884;SDS011;12123;53.088;7.392;2022-10-26T03:10:13;31.55;;;18.45;;
23884;SDS011;12123;53.088;7.392;2022-10-26T03:12:40;38.05;;;19.88;;
23884;SDS011;12123;53.088;7.392;2022-10-26T03:15:07;36.67;;;19.95;;
23884;SDS011;12123;53.088;7.392;2022-10-26T03:17:35;34.20;;;19.27;;
23884;SDS011;12123;53.088;7.392;2022-10-26T03:20:02;29.58;;;17.25;;
23884;SDS011;12123;53.088;7.392;2022-10-26T03:22:30;29.67;;;17.35;;
23884;SDS011;12123;53.088;7.392;2022-10-26T03:24:57;33.75;;;18.05;;
23884;SDS011;12123;53.088;7.392;2022-10-26T03:27:24;40.53;;;18.40;;
23884;SDS011;12123;53.088;7.392;2022-10-26T03:29:52;34.63;;;19.02;;
23884;SDS011;12123;53.088;7.392;2022-10-26T03:32:19;33.40;;;19.02;;
23884;SDS011;12123;53.088;7.392;2022-10-26T03:34:46;32.75;;;18.77;;
23884;SDS011;12123;53.088;7.392;2022-10-26T03:37:13;30.77;;;17.90;;
23884;SDS011;12123;53.088;7.392;2022-10-26T03:39:41;36.15;;;19.35;;
23884;SDS011;12123;53.088;7.392;2022-10-26T03:42:08;36.90;;;20.35;;
23884;SDS011;12123;53.088;7.392;2022-10-26T03:44:35;38.33;;;19.15;;
23884;SDS011;12123;53.088;7.392;2022-10-26T03:47:02;36.40;;;19.35;;
23884;SDS011;12123;53.088;7.392;2022-10-26T03:49:29;36.13;;;18.67;;
23884;SDS011;12123;53.088;7.392;2022-10-26T03:51:56;38.38;;;18.92;;
23884;SDS011;12123;53.088;7.392;2022-10-26T03:54:24;36.63;;;18.40;;
23884;SDS011;12123;53.088;7.392;2022-10-26T03:56:51;38.53;;;19.27;;
23884;SDS011;12123;53.088;7.392;2022-10-26T03:59:20;36.05;;;20.00;;
23884;SDS011;12123;53.088;7.392;2022-10-26T04:01:47;36.22;;;19.42;;
23884;SDS011;12123;53.088;7.392;2022-10-26T04:04:20;39.95;;;20.05;;
23884;SDS011;12123;53.088;7.392;2022-10-26T04:06:47;41.10;;;18.98;;
23884;SDS011;12123;53.088;7.392;2022-10-26T04:09:15;35.67;;;19.73;;
23884;SDS011;12123;53.088;7.392;2022-10-26T04:11:42;46.42;;;20.85;;
23884;SDS011;12123;53.088;7.392;2022-10-26T04:14:09;38.90;;;21.70;;
23884;SDS011;12123;53.088;7.392;2022-10-26T04:16:36;40.58;;;21.02;;
23884;SDS011;12123;53.088;7.392;2022-10-26T04:19:03;39.40;;;21.00;;
23884;SDS011;12123;53.088;7.392;2022-10-26T04:21:31;42.72;;;22.10;;
23884;SDS011;12123;53.088;7.392;2022-10-26T04:23:58;48.85;;;21.98;;
23884;SDS011;12123;53.088;7.392;2022-10-26T04:26:25;43.72;;;22.52;;
23884;SDS011;12123;53.088;7.392;2022-10-26T04:28:52;50.75;;;22.95;;
23884;SDS011;12123;53.088;7.392;2022-10-26T04:31:19;44.35;;;22.48;;
23884;SDS011;12123;53.088;7.392;2022-10-26T04:33:47;43.45;;;22.75;;
23884;SDS011;12123;53.088;7.392;2022-10-26T04:36:14;41.60;;;23.20;;
23884;SDS011;12123;53.088;7.392;2022-10-26T04:38:41;45.20;;;23.83;;
23884;SDS011;12123;53.088;7.392;2022-10-26T04:41:08;45.65;;;24.05;;
23884;SDS011;12123;53.088;7.392;2022-10-26T04:43:35;54.83;;;26.15;;
23884;SDS011;12123;53.088;7.392;2022-10-26T04:46:02;45.20;;;24.45;;
23884;SDS011;12123;53.088;7.392;2022-10-26T04:48:30;54.75;;;26.58;;
23884;SDS011;12123;53.088;7.392;2022-10-26T04:50:57;55.08;;;26.90;;
23884;SDS011;12123;53.088;7.392;2022-10-26T04:53:25;55.63;;;26.92;;
23884;SDS011;12123;53.088;7.392;2022-10-26T04:55:58;46.30;;;24.77;;
23884;SDS011;12123;53.088;7.392;2022-10-26T04:58:26;51.80;;;25.25;;
23884;SDS011;12123;53.088;7.392;2022-10-26T05:00:53;53.33;;;28.25;;
23884;SDS011;12123;53.088;7.392;2022-10-26T05:03:21;52.08;;;26.77;;
23884;SDS011;12123;53.088;7.392;2022-10-26T05:05:48;53.10;;;25.90;;
23884;SDS011;12123;53.088;7.392;2022-10-26T05:08:15;50.35;;;26.35;;
23884;SDS011;12123;53.088;7.392;2022-10-26T05:10:46;46.85;;;25.67;;
23884;SDS011;12123;53.088;7.392;2022-10-26T05:13:14;48.38;;;25.48;;
23884;SDS011;12123;53.088;7.392;2022-10-26T05:15:41;50.17;;;25.20;;
23884;SDS011;12123;53.088;7.392;2022-10-26T05:18:08;52.55;;;26.52;;
23884;SDS011;12123;53.088;7.392;2022-10-26T05:20:36;46.72;;;25.52;;
23884;SDS011;12123;53.088;7.392;2022-10-26T05:23:04;49.33;;;26.65;;
23884;SDS011;12123;53.088;7.392;2022-10-26T05:25:33;46.03;;;24.98;;
23884;SDS011;12123;53.088;7.392;2022-10-26T05:28:01;50.33;;;25.83;;
23884;SDS011;12123;53.088;7.392;2022-10-26T05:30:29;50.95;;;25.95;;
23884;SDS011;12123;53.088;7.392;2022-10-26T05:32:57;50.13;;;26.05;;
23884;SDS011;12123;53.088;7.392;2022-10-26T05:35:25;48.90;;;26.88;;
23884;SDS011;12123;53.088;7.392;2022-10-26T05:37:52;50.90;;;27.65;;
23884;SDS011;12123;53.088;7.392;2022-10-26T05:40:20;52.25;;;27.40;;
23884;SDS011;12123;53.088;7.392;2022-10-26T05:42:47;54.88;;;27.92;;
23884;SDS011;12123;53.088;7.392;2022-10-26T05:45:16;54.13;;;29.30;;
23884;SDS011;12123;53.088;7.392;2022-10-26T05:47:44;52.70;;;27.30;;
23884;SDS011;12123;53.088;7.392;2022-10-26T05:50:12;52.40;;;28.65;;
23884;SDS011;12123;53.088;7.392;2022-10-26T05:52:43;54.72;;;28.13;;
23884;SDS011;12123;53.088;7.392;2022-10-26T05:55:12;52.80;;;26.92;;
23884;SDS011;12123;53.088;7.392;2022-10-26T05:57:39;52.15;;;28.27;;
23884;SDS011;12123;53.088;7.392;2022-10-26T06:00:13;54.35;;;27.75;;
23884;SDS011;12123;53.088;7.392;2022-10-26T06:03:06;53.90;;;27.63;;
23884;SDS011;12123;53.088;7.392;2022-10-26T06:05:30;54.97;;;29.58;;
23884;SDS011;12123;53.088;7.392;2022-10-26T06:07:58;50.95;;;27.70;;
23884;SDS011;12123;53.088;7.392;2022-10-26T06:10:26;50.40;;;27.67;;
23884;SDS011;12123;53.088;7.392;2022-10-26T06:12:53;48.30;;;25.55;;
23884;SDS011;12123;53.088;7.392;2022-10-26T06:15:20;51.88;;;24.85;;
23884;SDS011;12123;53.088;7.392;2022-10-26T06:17:51;50.53;;;25.55;;
23884;SDS011;12123;53.088;7.392;2022-10-26T06:20:35;48.35;;;24.88;;
23884;SDS011;12123;53.088;7.392;2022-10-26T06:28:15;49.53;;;25.20;;
23884;SDS011;12123;53.088;7.392;2022-10-26T06:30:47;46.45;;;24.35;;
23884;SDS011;12123;53.088;7.392;2022-10-26T06:33:14;43.95;;;25.15;;
23884;SDS011;12123;53.088;7.392;2022-10-26T06:36:02;45.55;;;24.42;;
23884;SDS011;12123;53.088;7.392;2022-10-26T06:38:32;45.88;;;24.27;;
23884;SDS011;12123;53.088;7.392;2022-10-26T06:41:00;42.63;;;23.08;;
23884;SDS011;12123;53.088;7.392;2022-10-26T06:43:31;43.28;;;22.58;;
23884;SDS011;12123;53.088;7.392;2022-10-26T06:48:42;39.85;;;21.92;;
23884;SDS011;12123;53.088;7.392;2022-10-26T06:51:11;43.65;;;22.52;;
23884;SDS011;12123;53.088;7.392;2022-10-26T06:53:42;41.35;;;20.88;;
23884;SDS011;12123;53.088;7.392;2022-10-26T06:56:11;42.35;;;21.88;;
23884;SDS011;12123;53.088;7.392;2022-10-26T06:58:39;34.30;;;20.30;;
23884;SDS011;12123;53.088;7.392;2022-10-26T07:01:07;40.25;;;22.10;;
23884;SDS011;12123;53.088;7.392;2022-10-26T07:03:37;38.08;;;20.15;;
23884;SDS011;12123;53.088;7.392;2022-10-26T07:06:04;41.92;;;21.02;;
23884;SDS011;12123;53.088;7.392;2022-10-26T07:08:31;38.00;;;20.55;;
23884;SDS011;12123;53.088;7.392;2022-10-26T07:10:59;38.33;;;20.52;;
23884;SDS011;12123;53.088;7.392;2022-10-26T07:13:26;33.28;;;18.88;;
23884;SDS011;12123;53.088;7.392;2022-10-26T07:15:53;33.55;;;19.88;;
23884;SDS011;12123;53.088;7.392;2022-10-26T07:18:20;31.92;;;18.90;;
23884;SDS011;12123;53.088;7.392;2022-10-26T07:20:48;36.13;;;19.30;;
23884;SDS011;12123;53.088;7.392;2022-10-26T07:23:15;36.17;;;18.92;;
23884;SDS011;12123;53.088;7.392;2022-10-26T07:25:42;34.72;;;17.63;;
23884;SDS011;12123;53.088;7.392;2022-10-26T07:28:09;31.55;;;18.40;;
23884;SDS011;12123;53.088;7.392;2022-10-26T07:30:37;29.83;;;16.85;;
23884;SDS011;12123;53.088;7.392;2022-10-26T07:33:11;31.60;;;17.77;;
23884;SDS011;12123;53.088;7.392;2022-10-26T07:35:39;36.80;;;17.02;;
23884;SDS011;12123;53.088;7.392;2022-10-26T07:38:07;28.23;;;17.98;;
23884;SDS011;12123;53.088;7.392;2022-10-26T07:40:35;27.05;;;16.67;;
23884;SDS011;12123;53.088;7.392;2022-10-26T07:43:03;29.42;;;17.23;;
23884;SDS011;12123;53.088;7.392;2022-10-26T07:45:30;33.08;;;17.05;;
23884;SDS011;12123;53.088;7.392;2022-10-26T07:47:57;31.98;;;17.70;;
23884;SDS011;12123;53.088;7.392;2022-10-26T07:50:24;27.77;;;16.40;;
23884;SDS011;12123;53.088;7.392;2022-10-26T07:52:52;29.77;;;16.45;;
23884;SDS011;12123;53.088;7.392;2022-10-26T07:55:19;23.90;;;15.25;;
23884;SDS011;12123;53.088;7.392;2022-10-26T07:57:47;28.42;;;15.65;;
23884;SDS011;12123;53.088;7.392;2022-10-26T08:00:19;26.55;;;16.27;;
23884;SDS011;12123;53.088;7.392;2022-10-26T08:02:46;24.35;;;15.27;;
23884;SDS011;12123;53.088;7.392;2022-10-26T08:05:14;26.35;;;14.90;;
23884;SDS011;12123;53.088;7.392;2022-10-26T08:07:41;25.58;;;15.35;;
23884;SDS011;12123;53.088;7.392;2022-10-26T08:10:10;26.58;;;14.77;;
23884;SDS011;12123;53.088;7.392;2022-10-26T08:12:37;22.77;;;15.27;;
23884;SDS011;12123;53.088;7.392;2022-10-26T08:15:05;21.42;;;14.43;;
23884;SDS011;12123;53.088;7.392;2022-10-26T08:17:32;22.42;;;13.38;;
23884;SDS011;12123;53.088;7.392;2022-10-26T08:19:59;26.85;;;15.57;;
23884;SDS011;12123;53.088;7.392;2022-10-26T08:22:30;28.52;;;14.40;;
23884;SDS011;12123;53.088;7.392;2022-10-26T08:24:57;22.38;;;13.20;;
23884;SDS011;12123;53.088;7.392;2022-10-26T08:27:24;23.08;;;13.52;;
23884;SDS011;12123;53.088;7.392;2022-10-26T08:29:51;19.92;;;12.95;;
23884;SDS011;12123;53.088;7.392;2022-10-26T08:32:18;19.77;;;12.60;;
23884;SDS011;12123;53.088;7.392;2022-10-26T08:34:46;22.90;;;13.00;;
23884;SDS011;12123;53.088;7.392;2022-10-26T08:37:13;20.65;;;12.63;;
23884;SDS011;12123;53.088;7.392;2022-10-26T08:39:40;17.25;;;13.00;;
23884;SDS011;12123;53.088;7.392;2022-10-26T08:42:16;17.10;;;12.10;;
23884;SDS011;12123;53.088;7.392;2022-10-26T08:44:45;15.45;;;10.60;;
23884;SDS011;12123;53.088;7.392;2022-10-26T08:47:19;18.63;;;9.75;;
23884;SDS011;12123;53.088;7.392;2022-10-26T08:49:50;17.73;;;9.65;;
23884;SDS011;12123;53.088;7.392;2022-10-26T08:52:21;12.85;;;8.18;;
23884;SDS011;12123;53.088;7.392;2022-10-26T08:54:53;13.63;;;7.97;;
23884;SDS011;12123;53.088;7.392;2022-10-26T09:00:33;16.08;;;8.48;;
23884;SDS011;12123;53.088;7.392;2022-10-26T09:02:35;12.20;;;7.43;;
23884;SDS011;12123;53.088;7.392;2022-10-26T09:05:03;10.30;;;6.53;;
23884;SDS011;12123;53.088;7.392;2022-10-26T09:10:43;13.73;;;6.65;;
23884;SDS011;12123;53.088;7.392;2022-10-26T09:18:12;11.77;;;6.70;;
23884;SDS011;12123;53.088;7.392;2022-10-26T09:23:59;12.55;;;6.80;;
23884;SDS011;12123;53.088;7.392;2022-10-26T09:26:29;18.95;;;6.40;;
23884;SDS011;12123;53.088;7.392;2022-10-26T09:29:00;11.50;;;7.05;;
23884;SDS011;12123;53.088;7.392;2022-10-26T09:31:28;11.57;;;5.97;;
23884;SDS011;12123;53.088;7.392;2022-10-26T09:33:56;13.50;;;6.13;;
23884;SDS011;12123;53.088;7.392;2022-10-26T09:36:25;10.10;;;6.00;;
23884;SDS011;12123;53.088;7.392;2022-10-26T09:38:57;11.95;;;5.32;;
23884;SDS011;12123;53.088;7.392;2022-10-26T09:41:28;8.48;;;5.18;;
23884;SDS011;12123;53.088;7.392;2022-10-26T09:49:23;20.15;;;4.85;;
23884;SDS011;12123;53.088;7.392;2022-10-26T09:51:55;11.50;;;4.72;;
23884;SDS011;12123;53.088;7.392;2022-10-26T09:54:22;12.13;;;5.35;;
23884;SDS011;12123;53.088;7.392;2022-10-26T09:56:50;9.32;;;4.70;;
23884;SDS011;12123;53.088;7.392;2022-10-26T09:59:20;8.45;;;4.20;;
23884;SDS011;12123;53.088;7.392;2022-10-26T10:01:48;9.95;;;4.68;;
23884;SDS011;12123;53.088;7.392;2022-10-26T10:04:16;9.25;;;4.50;;
23884;SDS011;12123;53.088;7.392;2022-10-26T10:06:52;9.68;;;4.45;;
23884;SDS011;12123;53.088;7.392;2022-10-26T10:09:31;9.27;;;4.35;;
23884;SDS011;12123;53.088;7.392;2022-10-26T10:12:00;7.03;;;3.58;;
23884;SDS011;12123;53.088;7.392;2022-10-26T10:14:32;7.63;;;2.80;;
23884;SDS011;12123;53.088;7.392;2022-10-26T10:17:14;10.40;;;3.22;;
23884;SDS011;12123;53.088;7.392;2022-10-26T10:19:45;7.97;;;3.20;;
23884;SDS011;12123;53.088;7.392;2022-10-26T10:25:20;7.55;;;2.45;;
23884;SDS011;12123;53.088;7.392;2022-10-26T10:27:39;5.72;;;2.25;;
23884;SDS011;12123;53.088;7.392;2022-10-26T10:30:21;7.22;;;2.35;;
23884;SDS011;12123;53.088;7.392;2022-10-26T10:35:35;5.93;;;1.80;;
23884;SDS011;12123;53.088;7.392;2022-10-26T10:38:03;7.60;;;2.30;;
23884;SDS011;12123;53.088;7.392;2022-10-26T10:40:30;5.07;;;1.98;;
23884;SDS011;12123;53.088;7.392;2022-10-26T10:43:05;7.28;;;2.20;;
23884;SDS011;12123;53.088;7.392;2022-10-26T10:45:32;11.50;;;2.50;;
23884;SDS011;12123;53.088;7.392;2022-10-26T10:50:38;11.00;;;2.15;;
23884;SDS011;12123;53.088;7.392;2022-10-26T10:53:17;7.65;;;2.38;;
23884;SDS011;12123;53.088;7.392;2022-10-26T10:58:30;8.93;;;2.92;;
23884;SDS011;12123;53.088;7.392;2022-10-26T11:01:01;7.53;;;2.72;;
23884;SDS011;12123;53.088;7.392;2022-10-26T11:06:01;7.75;;;2.35;;
23884;SDS011;12123;53.088;7.392;2022-10-26T11:08:39;7.03;;;2.15;;
23884;SDS011;12123;53.088;7.392;2022-10-26T11:11:12;3.45;;;1.75;;
23884;SDS011;12123;53.088;7.392;2022-10-26T11:16:15;4.22;;;1.63;;
23884;SDS011;12123;53.088;7.392;2022-10-26T11:18:47;2.88;;;1.50;;
23884;SDS011;12123;53.088;7.392;2022-10-26T11:21:29;6.10;;;1.98;;
23884;SDS011;12123;53.088;7.392;2022-10-26T11:31:56;10.05;;;2.78;;
23884;SDS011;12123;53.088;7.392;2022-10-26T11:34:33;5.07;;;1.98;;
23884;SDS011;12123;53.088;7.392;2022-10-26T11:37:13;7.60;;;1.73;;
23884;SDS011;12123;53.088;7.392;2022-10-26T11:39:44;5.63;;;2.75;;
23884;SDS011;12123;53.088;7.392;2022-10-26T11:42:18;5.22;;;1.65;;
23884;SDS011;12123;53.088;7.392;2022-10-26T11:44:48;6.57;;;1.90;;
23884;SDS011;12123;53.088;7.392;2022-10-26T11:47:29;5.65;;;1.85;;
23884;SDS011;12123;53.088;7.392;2022-10-26T11:55:03;6.03;;;1.95;;
23884;SDS011;12123;53.088;7.392;2022-10-26T11:57:33;5.43;;;1.80;;
23884;SDS011;12123;53.088;7.392;2022-10-26T12:02:29;5.88;;;1.77;;
23884;SDS011;12123;53.088;7.392;2022-10-26T12:05:02;3.75;;;1.67;;
23884;SDS011;12123;53.088;7.392;2022-10-26T12:07:32;5.35;;;1.92;;
23884;SDS011;12123;53.088;7.392;2022-10-26T12:10:00;5.05;;;1.60;;
23884;SDS011;12123;53.088;7.392;2022-10-26T12:15:04;7.15;;;1.73;;
23884;SDS011;12123;53.088;7.392;2022-10-26T12:17:38;6.00;;;1.90;;
23884;SDS011;12123;53.088;7.392;2022-10-26T12:22:46;4.28;;;1.75;;
23884;SDS011;12123;53.088;7.392;2022-10-26T12:35:33;3.35;;;1.63;;
23884;SDS011;12123;53.088;7.392;2022-10-26T12:43:32;5.05;;;1.65;;
23884;SDS011;12123;53.088;7.392;2022-10-26T12:48:43;3.83;;;1.85;;
23884;SDS011;12123;53.088;7.392;2022-10-26T12:54:08;5.20;;;2.00;;
23884;SDS011;12123;53.088;7.392;2022-10-26T12:56:48;6.50;;;2.17;;
23884;SDS011;12123;53.088;7.392;2022-10-26T13:07:22;14.25;;;2.42;;
23884;SDS011;12123;53.088;7.392;2022-10-26T13:09:54;7.10;;;2.42;;
23884;SDS011;12123;53.088;7.392;2022-10-26T13:12:22;8.05;;;2.55;;
23884;SDS011;12123;53.088;7.392;2022-10-26T13:14:54;6.57;;;2.53;;
23884;SDS011;12123;53.088;7.392;2022-10-26T13:17:23;8.20;;;2.45;;
23884;SDS011;12123;53.088;7.392;2022-10-26T13:19:54;7.95;;;2.25;;
23884;SDS011;12123;53.088;7.392;2022-10-26T13:22:22;8.25;;;2.35;;
23884;SDS011;12123;53.088;7.392;2022-10-26T13:24:53;5.68;;;2.50;;
23884;SDS011;12123;53.088;7.392;2022-10-26T13:27:39;6.05;;;2.38;;
23884;SDS011;12123;53.088;7.392;2022-10-26T13:33:05;8.25;;;2.45;;
23884;SDS011;12123;53.088;7.392;2022-10-26T13:35:34;5.25;;;2.22;;
23884;SDS011;12123;53.088;7.392;2022-10-26T13:38:07;3.80;;;2.40;;
23884;SDS011;12123;53.088;7.392;2022-10-26T13:40:36;7.15;;;2.13;;
23884;SDS011;12123;53.088;7.392;2022-10-26T13:43:04;4.53;;;2.40;;
23884;SDS011;12123;53.088;7.392;2022-10-26T13:45:40;8.90;;;2.25;;
23884;SDS011;12123;53.088;7.392;2022-10-26T13:48:21;5.78;;;2.50;;
23884;SDS011;12123;53.088;7.392;2022-10-26T13:50:53;8.23;;;3.03;;
23884;SDS011;12123;53.088;7.392;2022-10-26T13:56:04;6.07;;;2.50;;
23884;SDS011;12123;53.088;7.392;2022-10-26T14:01:10;9.48;;;3.10;;
23884;SDS011;12123;53.088;7.392;2022-10-26T14:03:38;7.47;;;3.10;;
23884;SDS011;12123;53.088;7.392;2022-10-26T14:06:14;9.20;;;2.80;;
23884;SDS011;12123;53.088;7.392;2022-10-26T14:08:42;8.57;;;2.80;;
23884;SDS011;12123;53.088;7.392;2022-10-26T14:11:13;7.25;;;2.38;;
23884;SDS011;12123;53.088;7.392;2022-10-26T14:13:41;6.47;;;3.47;;
23884;SDS011;12123;53.088;7.392;2022-10-26T14:16:08;9.25;;;3.30;;
23884;SDS011;12123;53.088;7.392;2022-10-26T14:18:42;8.30;;;2.90;;
23884;SDS011;12123;53.088;7.392;2022-10-26T14:21:13;7.05;;;3.15;;
23884;SDS011;12123;53.088;7.392;2022-10-26T14:23:48;8.23;;;3.40;;
23884;SDS011;12123;53.088;7.392;2022-10-26T14:26:26;7.97;;;3.03;;
23884;SDS011;12123;53.088;7.392;2022-10-26T14:28:55;7.90;;;3.20;;
23884;SDS011;12123;53.088;7.392;2022-10-26T14:31:27;15.30;;;3.78;;
23884;SDS011;12123;53.088;7.392;2022-10-26T14:33:54;9.07;;;3.50;;
23884;SDS011;12123;53.088;7.392;2022-10-26T14:36:27;11.43;;;3.70;;
23884;SDS011;12123;53.088;7.392;2022-10-26T14:39:02;10.18;;;3.00;;
23884;SDS011;12123;53.088;7.392;2022-10-26T14:41:33;9.10;;;3.65;;
23884;SDS011;12123;53.088;7.392;2022-10-26T14:44:00;13.93;;;3.33;;
23884;SDS011;12123;53.088;7.392;2022-10-26T14:46:33;8.35;;;3.33;;
23884;SDS011;12123;53.088;7.392;2022-10-26T14:49:01;9.23;;;3.78;;
23884;SDS011;12123;53.088;7.392;2022-10-26T14:51:29;11.35;;;3.88;;
23884;SDS011;12123;53.088;7.392;2022-10-26T14:53:57;11.25;;;3.83;;
23884;SDS011;12123;53.088;7.392;2022-10-26T15:07:06;7.93;;;4.18;;
23884;SDS011;12123;53.088;7.392;2022-10-26T15:09:43;8.50;;;3.90;;
23884;SDS011;12123;53.088;7.392;2022-10-26T15:14:44;16.02;;;4.40;;
23884;SDS011;12123;53.088;7.392;2022-10-26T15:17:13;10.23;;;4.00;;
23884;SDS011;12123;53.088;7.392;2022-10-26T15:19:43;11.35;;;4.97;;
23884;SDS011;12123;53.088;7.392;2022-10-26T15:22:18;10.65;;;4.03;;
23884;SDS011;12123;53.088;7.392;2022-10-26T15:24:48;11.85;;;4.43;;
23884;SDS011;12123;53.088;7.392;2022-10-26T15:27:16;15.77;;;5.40;;
23884;SDS011;12123;53.088;7.392;2022-10-26T15:29:44;7.72;;;4.50;;
23884;SDS011;12123;53.088;7.392;2022-10-26T15:32:26;10.07;;;4.65;;
23884;SDS011;12123;53.088;7.392;2022-10-26T15:37:39;8.05;;;5.03;;
23884;SDS011;12123;53.088;7.392;2022-10-26T15:40:07;13.82;;;5.25;;
23884;SDS011;12123;53.088;7.392;2022-10-26T15:42:34;10.85;;;5.03;;
23884;SDS011;12123;53.088;7.392;2022-10-26T15:45:03;14.45;;;5.03;;
23884;SDS011;12123;53.088;7.392;2022-10-26T15:47:32;15.02;;;6.05;;
23884;SDS011;12123;53.088;7.392;2022-10-26T15:50:00;11.15;;;5.50;;
23884;SDS011;12123;53.088;7.392;2022-10-26T15:52:27;12.85;;;5.78;;
23884;SDS011;12123;53.088;7.392;2022-10-26T15:54:55;12.90;;;4.80;;
23884;SDS011;12123;53.088;7.392;2022-10-26T15:57:22;8.68;;;5.05;;
23884;SDS011;12123;53.088;7.392;2022-10-26T15:59:51;11.38;;;5.47;;
23884;SDS011;12123;53.088;7.392;2022-10-26T16:02:18;14.32;;;5.65;;
23884;SDS011;12123;53.088;7.392;2022-10-26T16:04:45;15.38;;;6.35;;
23884;SDS011;12123;53.088;7.392;2022-10-26T16:07:13;14.82;;;6.65;;
23884;SDS011;12123;53.088;7.392;2022-10-26T16:09:41;12.40;;;6.00;;
23884;SDS011;12123;53.088;7.392;2022-10-26T16:12:09;15.95;;;5.95;;
23884;SDS011;12123;53.088;7.392;2022-10-26T16:14:37;10.80;;;5.65;;
23884;SDS011;12123;53.088;7.392;2022-10-26T16:17:24;11.75;;;5.55;;
23884;SDS011;12123;53.088;7.392;2022-10-26T16:19:52;14.52;;;6.63;;
23884;SDS011;12123;53.088;7.392;2022-10-26T16:22:19;16.65;;;6.60;;
23884;SDS011;12123;53.088;7.392;2022-10-26T16:24:46;18.13;;;7.30;;
23884;SDS011;12123;53.088;7.392;2022-10-26T16:27:13;14.57;;;6.50;;
23884;SDS011;12123;53.088;7.392;2022-10-26T16:29:40;13.95;;;7.57;;
23884;SDS011;12123;53.088;7.392;2022-10-26T16:32:07;15.10;;;7.57;;
23884;SDS011;12123;53.088;7.392;2022-10-26T16:34:35;16.50;;;6.70;;
23884;SDS011;12123;53.088;7.392;2022-10-26T16:37:02;14.90;;;7.85;;
23884;SDS011;12123;53.088;7.392;2022-10-26T16:39:29;15.52;;;6.70;;
23884;SDS011;12123;53.088;7.392;2022-10-26T16:41:56;16.45;;;7.68;;
23884;SDS011;12123;53.088;7.392;2022-10-26T16:44:23;14.60;;;7.82;;
23884;SDS011;12123;53.088;7.392;2022-10-26T16:46:50;18.52;;;6.97;;
23884;SDS011;12123;53.088;7.392;2022-10-26T16:49:17;16.33;;;7.53;;
23884;SDS011;12123;53.088;7.392;2022-10-26T16:51:45;18.33;;;7.85;;
23884;SDS011;12123;53.088;7.392;2022-10-26T16:54:12;12.98;;;7.05;;
23884;SDS011;12123;53.088;7.392;2022-10-26T16:56:39;11.77;;;6.68;;
23884;SDS011;12123;53.088;7.392;2022-10-26T16:59:08;14.73;;;6.95;;
23884;SDS011;12123;53.088;7.392;2022-10-26T17:01:35;13.25;;;6.53;;
23884;SDS011;12123;53.088;7.392;2022-10-26T17:04:02;18.05;;;7.07;;
23884;SDS011;12123;53.088;7.392;2022-10-26T17:06:30;18.95;;;7.72;;
23884;SDS011;12123;53.088;7.392;2022-10-26T17:08:57;15.13;;;7.47;;